createdAt,value
2022-08-16T00:01:16.015Z,95503.38
2022-08-16T00:03:42.706Z,95505.09
2022-08-16T00:06:10.119Z,95499.34
2022-08-16T00:08:38.150Z,95496.88
2022-08-16T00:11:08.550Z,95499.34
2022-08-16T00:13:43.545Z,95506.91
2022-08-16T00:17:01.534Z,95504.47
2022-08-16T00:19:08.254Z,95504.91
2022-08-16T00:21:35.549Z,95509.25
2022-08-16T00:24:04.644Z,95496.25
2022-08-16T00:26:36.007Z,95494.00
2022-08-16T00:29:11.834Z,95486.88
2022-08-16T00:31:58.638Z,95487.78
2022-08-16T00:34:52.280Z,95484.84
2022-08-16T00:37:16.715Z,95475.72
2022-08-16T00:39:44.894Z,95477.63
2022-08-16T00:42:12.045Z,95476.19
2022-08-16T00:44:41.742Z,95480.97
2022-08-16T00:47:16.355Z,95484.94
2022-08-16T00:49:44.560Z,95484.34
2022-08-16T00:52:29.631Z,95493.47
2022-08-16T00:54:57.395Z,95497.44
2022-08-16T00:57:24.224Z,95499.75
2022-08-16T00:59:54.608Z,95500.81
2022-08-16T01:02:31.319Z,95504.56
2022-08-16T01:05:09.538Z,95500.44
2022-08-16T01:07:51.020Z,95505.44
2022-08-16T01:10:32.806Z,95517.91
2022-08-16T01:13:15.150Z,95517.97
2022-08-16T01:15:47.411Z,95520.09
2022-08-16T01:18:39.007Z,95519.84
2022-08-16T01:21:22.443Z,95514.78
2022-08-16T01:24:03.780Z,95511.88
2022-08-16T01:26:35.545Z,95515.13
2022-08-16T01:29:10.078Z,95511.41
2022-08-16T01:31:42.696Z,95516.78
2022-08-16T01:34:25.024Z,95518.28
2022-08-16T01:37:03.087Z,95512.69
2022-08-16T01:39:30.435Z,95516.41
2022-08-16T01:42:04.659Z,95515.59
2022-08-16T01:44:39.977Z,95523.16
2022-08-16T01:47:07.791Z,95516.47
2022-08-16T01:50:40.614Z,95520.59
2022-08-16T01:52:30.159Z,95520.75
2022-08-16T01:54:58.088Z,95520.59
2022-08-16T01:57:27.070Z,95517.09
2022-08-16T01:59:54.526Z,95524.13
2022-08-16T02:02:27.413Z,95522.25
2022-08-16T02:04:56.327Z,95529.94
2022-08-16T02:07:24.457Z,95523.75
2022-08-16T02:09:57.023Z,95529.13
2022-08-16T02:12:51.724Z,95536.38
2022-08-16T02:15:13.354Z,95541.75
2022-08-16T02:17:40.830Z,95533.69
2022-08-16T02:20:11.655Z,95535.09
2022-08-16T02:22:39.085Z,95539.22
2022-08-16T02:25:10.856Z,95535.69
2022-08-16T02:27:41.047Z,95538.59
2022-08-16T02:30:36.976Z,95546.91
2022-08-16T02:33:04.604Z,95548.75
2022-08-16T02:35:33.386Z,95552.72
2022-08-16T02:38:08.687Z,95551.91
2022-08-16T02:40:37.458Z,95558.31
2022-08-16T02:43:04.391Z,95553.16
2022-08-16T02:45:31.952Z,95554.22
2022-08-16T02:48:01.881Z,95558.75
2022-08-16T02:50:55.401Z,95563.56
2022-08-16T02:53:34.741Z,95561.91
2022-08-16T02:56:02.287Z,95557.56
2022-08-16T02:58:32.711Z,95560.47
2022-08-16T03:01:00.343Z,95561.06
2022-08-16T03:04:24.799Z,95563.34
2022-08-16T03:06:39.043Z,95559.59
2022-08-16T03:09:06.005Z,95555.03
2022-08-16T03:11:35.288Z,95543.47
2022-08-16T03:14:07.349Z,95543.09
2022-08-16T03:16:39.123Z,95540.84
2022-08-16T03:19:22.375Z,95535.66
2022-08-16T03:21:51.788Z,95540.91
2022-08-16T03:24:28.859Z,95552.94
2022-08-16T03:27:02.761Z,95542.03
2022-08-16T03:29:33.017Z,95545.75
2022-08-16T03:32:01.750Z,95537.28
2022-08-16T03:34:30.941Z,95536.09
2022-08-16T03:36:58.458Z,95537.81
2022-08-16T03:39:25.274Z,95540.50
2022-08-16T03:41:59.307Z,95537.00
2022-08-16T03:44:44.615Z,95531.84
2022-08-16T03:47:19.065Z,95530.41
2022-08-16T03:49:51.493Z,95533.34
2022-08-16T03:52:20.292Z,95542.66
2022-08-16T03:54:53.683Z,95545.34
2022-08-16T03:57:24.823Z,95545.97
2022-08-16T03:59:59.521Z,95552.19
2022-08-16T04:02:41.259Z,95550.09
2022-08-16T04:05:09.096Z,95549.94
2022-08-16T04:07:36.407Z,95560.09
2022-08-16T04:10:35.940Z,95565.50
2022-08-16T04:13:00.572Z,95564.69
2022-08-16T04:15:31.190Z,95565.50
2022-08-16T04:18:02.068Z,95563.41
2022-08-16T04:20:33.958Z,95570.84
2022-08-16T04:23:03.634Z,95576.16
2022-08-16T04:25:33.010Z,95571.38
2022-08-16T04:28:29.205Z,95578.41
2022-08-16T04:30:46.751Z,95576.09
2022-08-16T04:33:14.651Z,95585.94
2022-08-16T04:35:41.643Z,95583.44
2022-08-16T04:38:10.546Z,95589.44
2022-08-16T04:40:38.535Z,95590.63
2022-08-16T04:43:05.929Z,95594.53
2022-08-16T04:45:36.155Z,95591.59
2022-08-16T04:48:04.342Z,95586.81
2022-08-16T04:50:31.336Z,95594.69
2022-08-16T04:52:59.278Z,95597.56
2022-08-16T04:55:31.846Z,95604.59
2022-08-16T04:58:44.331Z,95604.38
2022-08-16T05:00:53.295Z,95605.22
2022-08-16T05:03:20.845Z,95615.50
2022-08-16T05:05:58.932Z,95611.78
2022-08-16T05:08:30.477Z,95608.06
2022-08-16T05:11:05.786Z,95617.34
2022-08-16T05:13:41.811Z,95608.38
2022-08-16T05:16:16.679Z,95607.72
2022-08-16T05:18:48.499Z,95609.16
2022-08-16T05:21:15.201Z,95602.84
2022-08-16T05:23:45.488Z,95618.34
2022-08-16T05:26:22.488Z,95611.47
2022-08-16T05:28:55.463Z,95613.72
2022-08-16T05:31:29.530Z,95613.81
2022-08-16T05:33:58.786Z,95612.13
2022-08-16T05:36:34.412Z,95609.16
2022-08-16T05:39:09.387Z,95609.88
2022-08-16T05:41:45.339Z,95606.41
2022-08-16T05:44:22.840Z,95618.72
2022-08-16T05:46:56.950Z,95615.44
2022-08-16T05:49:38.666Z,95607.66
2022-08-16T05:52:11.314Z,95612.41
2022-08-16T05:54:46.708Z,95615.88
2022-08-16T05:57:15.568Z,95616.38
2022-08-16T05:59:42.313Z,95616.22
2022-08-16T06:02:09.970Z,95610.53
2022-08-16T06:04:37.663Z,95616.44
2022-08-16T06:07:10.417Z,95618.44
2022-08-16T06:09:53.543Z,95613.31
2022-08-16T06:12:27.218Z,95625.03
2022-08-16T06:15:04.488Z,95617.31
2022-08-16T06:17:42.712Z,95622.78
2022-08-16T06:20:23.812Z,95626.13
2022-08-16T06:22:58.537Z,95608.91
2022-08-16T06:25:35.890Z,95621.31
2022-08-16T06:28:08.439Z,95623.91
2022-08-16T06:30:36.538Z,95623.28
2022-08-16T06:33:12.489Z,95617.97
2022-08-16T06:35:41.451Z,95618.34
2022-08-16T06:38:32.611Z,95614.38
2022-08-16T06:40:56.434Z,95612.56
2022-08-16T06:43:27.285Z,95627.63
2022-08-16T06:45:54.664Z,95628.19
2022-08-16T06:48:33.010Z,95635.78
2022-08-16T06:51:03.237Z,95631.13
2022-08-16T06:53:33.838Z,95635.38
2022-08-16T06:56:06.086Z,95630.75
2022-08-16T06:58:41.690Z,95637.22
2022-08-16T07:01:09.798Z,95635.50
2022-08-16T07:03:55.687Z,95635.69
2022-08-16T07:06:26.450Z,95637.06
2022-08-16T07:08:54.406Z,95637.34
2022-08-16T07:11:45.879Z,95628.66
2022-08-16T07:14:23.599Z,95630.25
2022-08-16T07:16:53.965Z,95622.34
2022-08-16T07:19:20.629Z,95627.97
2022-08-16T07:21:59.337Z,95630.44
2022-08-16T07:24:30.910Z,95635.72
2022-08-16T07:27:01.556Z,95636.19
2022-08-16T07:29:31.387Z,95638.97
2022-08-16T07:32:00.653Z,95638.00
2022-08-16T07:34:35.009Z,95641.63
2022-08-16T07:37:10.330Z,95643.00
2022-08-16T07:39:43.068Z,95639.19
2022-08-16T07:42:25.925Z,95639.16
2022-08-16T07:44:58.614Z,95644.53
2022-08-16T07:47:31.498Z,95644.50
2022-08-16T07:50:00.262Z,95644.41
2022-08-16T07:52:32.800Z,95647.63
2022-08-16T07:55:00.020Z,95645.41
2022-08-16T07:57:26.976Z,95649.00
2022-08-16T07:59:57.178Z,95638.94
2022-08-16T08:02:27.326Z,95649.94
2022-08-16T08:04:56.096Z,95650.50
2022-08-16T08:07:27.668Z,95645.88
2022-08-16T08:09:55.858Z,95652.41
2022-08-16T08:12:31.213Z,95649.16
2022-08-16T08:14:59.993Z,95641.56
2022-08-16T08:17:42.651Z,95645.09
2022-08-16T08:20:26.227Z,95645.66
2022-08-16T08:23:00.067Z,95641.88
2022-08-16T08:25:54.134Z,95650.91
2022-08-16T08:28:17.767Z,95646.03
2022-08-16T08:31:00.700Z,95652.34
2022-08-16T08:33:28.764Z,95646.94
2022-08-16T08:36:01.157Z,95651.56
2022-08-16T08:38:45.009Z,95641.47
2022-08-16T08:41:13.483Z,95652.66
2022-08-16T08:43:42.981Z,95653.19
2022-08-16T08:46:12.478Z,95646.38
2022-08-16T08:48:59.486Z,95660.56
2022-08-16T08:51:35.589Z,95654.56
2022-08-16T08:54:06.829Z,95666.00
2022-08-16T08:56:36.364Z,95659.44
2022-08-16T08:59:16.441Z,95664.34
2022-08-16T09:01:56.718Z,95663.53
2022-08-16T09:04:27.206Z,95663.25
2022-08-16T09:06:55.310Z,95663.25
2022-08-16T09:09:23.528Z,95664.63
2022-08-16T09:12:04.220Z,95663.28
2022-08-16T09:14:35.676Z,95657.28
2022-08-16T09:17:11.743Z,95663.81
2022-08-16T09:19:41.284Z,95653.47
2022-08-16T09:22:20.742Z,95661.63
2022-08-16T09:24:53.422Z,95664.00
2022-08-16T09:27:23.470Z,95667.47
2022-08-16T09:29:59.788Z,95664.41
2022-08-16T09:32:30.459Z,95662.69
2022-08-16T09:34:59.358Z,95658.97
2022-08-16T09:37:29.406Z,95660.59
2022-08-16T09:40:00.705Z,95660.59
2022-08-16T09:42:30.497Z,95656.53
2022-08-16T09:45:18.334Z,95659.25
2022-08-16T09:47:56.538Z,95661.28
2022-08-16T09:50:37.236Z,95670.31
2022-08-16T09:53:15.192Z,95663.50
2022-08-16T09:55:49.488Z,95665.84
2022-08-16T09:58:41.319Z,95665.47
2022-08-16T10:01:11.175Z,95660.69
2022-08-16T10:03:38.487Z,95675.78
2022-08-16T10:06:33.474Z,95666.09
2022-08-16T10:09:06.821Z,95664.88
2022-08-16T10:11:55.252Z,95658.66
2022-08-16T10:14:24.580Z,95662.50
2022-08-16T10:16:59.875Z,95650.38
2022-08-16T10:19:29.616Z,95649.56
2022-08-16T10:21:59.861Z,95651.91
2022-08-16T10:24:32.760Z,95648.50
2022-08-16T10:27:26.095Z,95649.78
2022-08-16T10:30:00.646Z,95647.91
2022-08-16T10:32:34.344Z,95646.44
2022-08-16T10:35:03.432Z,95648.59
2022-08-16T10:37:32.822Z,95647.84
2022-08-16T10:40:04.811Z,95641.00
2022-08-16T10:42:31.527Z,95641.88
2022-08-16T10:44:58.263Z,95639.59
2022-08-16T10:47:26.450Z,95643.97
2022-08-16T10:49:55.948Z,95641.59
2022-08-16T10:52:24.322Z,95647.13
2022-08-16T10:54:59.223Z,95649.59
2022-08-16T10:57:32.968Z,95640.16
2022-08-16T11:00:01.294Z,95636.34
2022-08-16T11:03:00.317Z,95649.97
2022-08-16T11:05:17.563Z,95638.56
2022-08-16T11:07:52.257Z,95634.81
2022-08-16T11:19:06.088Z,95629.91
2022-08-16T11:24:39.566Z,95640.06
2022-08-16T11:27:23.171Z,95644.75
2022-08-16T11:29:55.294Z,95645.34
2022-08-16T11:32:29.820Z,95643.72
2022-08-16T11:35:16.101Z,95645.72
2022-08-16T11:38:23.284Z,95647.66
2022-08-16T11:40:44.187Z,95652.38
2022-08-16T11:43:12.939Z,95641.81
2022-08-16T11:45:43.672Z,95649.59
2022-08-16T11:48:20.474Z,95646.81
2022-08-16T11:50:47.923Z,95651.88
2022-08-16T11:53:15.238Z,95637.25
2022-08-16T11:55:44.005Z,95634.72
2022-08-16T11:58:12.149Z,95640.69
2022-08-16T12:00:50.427Z,95635.63
2022-08-16T12:03:19.299Z,95640.72
2022-08-16T12:05:46.857Z,95639.19
2022-08-16T12:08:21.024Z,95634.84
2022-08-16T12:10:54.346Z,95644.75
2022-08-16T12:13:26.399Z,95639.84
2022-08-16T12:15:53.227Z,95645.69
2022-08-16T12:18:20.551Z,95642.00
2022-08-16T12:20:48.004Z,95642.59
2022-08-16T12:23:17.312Z,95645.16
2022-08-16T12:25:45.122Z,95641.75
2022-08-16T12:28:12.909Z,95646.47
2022-08-16T12:30:42.893Z,95636.69
2022-08-16T12:33:12.428Z,95639.88
2022-08-16T12:35:40.409Z,95641.97
2022-08-16T12:38:38.262Z,95636.56
2022-08-16T12:40:57.106Z,95636.84
2022-08-16T12:43:25.599Z,95642.63
2022-08-16T12:45:55.232Z,95639.94
2022-08-16T12:48:44.881Z,95640.09
2022-08-16T12:51:22.324Z,95648.06
2022-08-16T12:53:52.735Z,95640.16
2022-08-16T12:56:25.346Z,95638.34
2022-08-16T12:58:53.399Z,95640.31
2022-08-16T13:01:27.574Z,95634.38
2022-08-16T13:04:12.021Z,95633.34
2022-08-16T13:06:43.432Z,95630.66
2022-08-16T13:09:26.342Z,95631.59
2022-08-16T13:12:21.106Z,95627.41
2022-08-16T13:14:50.144Z,95632.41
2022-08-16T13:17:24.019Z,95623.38
2022-08-16T13:20:11.504Z,95626.66
2022-08-16T13:22:50.452Z,95624.44
2022-08-16T13:25:21.137Z,95622.22
2022-08-16T13:28:15.074Z,95629.16
2022-08-16T13:30:41.719Z,95622.78
2022-08-16T13:33:12.549Z,95625.31
2022-08-16T13:35:45.926Z,95622.34
2022-08-16T13:38:24.836Z,95611.50
2022-08-16T13:40:56.121Z,95606.81
2022-08-16T13:43:26.432Z,95611.34
2022-08-16T13:45:55.449Z,95614.25
2022-08-16T13:48:24.840Z,95613.09
2022-08-16T13:51:00.581Z,95610.16
2022-08-16T13:53:30.948Z,95602.53
2022-08-16T13:55:59.612Z,95606.28
2022-08-16T13:58:34.817Z,95598.69
2022-08-16T14:01:09.878Z,95602.31
2022-08-16T14:03:37.499Z,95603.44
2022-08-16T14:06:04.347Z,95603.53
2022-08-16T14:08:31.206Z,95597.97
2022-08-16T14:10:57.923Z,95589.88
2022-08-16T14:13:24.675Z,95590.38
2022-08-16T14:15:51.693Z,95597.97
2022-08-16T14:18:20.418Z,95599.97
2022-08-16T14:20:58.602Z,95593.47
2022-08-16T14:23:25.328Z,95592.97
2022-08-16T14:25:54.024Z,95594.38
2022-08-16T14:28:23.404Z,95601.22
2022-08-16T14:30:50.939Z,95592.53
2022-08-16T14:33:19.035Z,95594.22
2022-08-16T14:35:48.778Z,95598.06
2022-08-16T14:38:18.898Z,95595.94
2022-08-16T14:40:51.083Z,95595.97
2022-08-16T14:43:22.119Z,95587.81
2022-08-16T14:45:50.879Z,95590.31
2022-08-16T14:48:25.722Z,95594.72
2022-08-16T14:50:54.071Z,95598.84
2022-08-16T14:53:20.873Z,95597.50
2022-08-16T14:55:48.573Z,95604.03
2022-08-16T14:58:19.532Z,95596.94
2022-08-16T15:00:50.130Z,95601.63
2022-08-16T15:03:18.354Z,95601.69
2022-08-16T15:05:48.481Z,95609.66
2022-08-16T15:08:17.721Z,95599.31
2022-08-16T15:10:47.116Z,95595.00
2022-08-16T15:13:14.986Z,95598.06
2022-08-16T15:15:43.425Z,95594.81
2022-08-16T15:18:11.933Z,95593.19
2022-08-16T15:20:39.102Z,95592.41
2022-08-16T15:23:09.076Z,95601.13
2022-08-16T15:25:58.637Z,95590.81
2022-08-16T15:28:32.622Z,95595.19
2022-08-16T15:31:02.994Z,95594.88
2022-08-16T15:33:32.251Z,95592.16
2022-08-16T15:35:59.623Z,95595.16
2022-08-16T15:38:54.581Z,95598.16
2022-08-16T15:41:47.979Z,95596.28
2022-08-16T15:44:22.547Z,95591.91
2022-08-16T15:46:58.566Z,95591.09
2022-08-16T15:49:32.924Z,95591.66
2022-08-16T15:52:10.525Z,95593.56
2022-08-16T15:54:51.395Z,95593.84
2022-08-16T15:57:22.674Z,95588.13
2022-08-16T15:59:52.738Z,95589.75
2022-08-16T16:02:29.526Z,95591.13
2022-08-16T16:05:02.028Z,95584.59
2022-08-16T16:07:31.098Z,95575.63
2022-08-16T16:09:59.606Z,95576.16
2022-08-16T16:12:51.403Z,95576.69
2022-08-16T16:15:22.844Z,95577.25
2022-08-16T16:17:52.567Z,95580.53
2022-08-16T16:20:24.433Z,95582.16
2022-08-16T16:22:56.686Z,95587.31
2022-08-16T16:25:25.083Z,95587.31
2022-08-16T16:27:55.973Z,95584.59
2022-08-16T16:30:33.346Z,95582.94
2022-08-16T16:33:20.494Z,95587.84
2022-08-16T16:35:55.663Z,95598.13
2022-08-16T16:38:27.229Z,95592.44
2022-08-16T16:40:54.587Z,95595.66
2022-08-16T16:43:25.476Z,95598.41
2022-08-16T16:45:52.869Z,95592.66
2022-08-16T16:48:19.648Z,95600.00
2022-08-16T16:50:46.456Z,95600.53
2022-08-16T16:53:17.640Z,95599.44
2022-08-16T16:55:47.747Z,95597.75
2022-08-16T16:58:38.803Z,95598.31
2022-08-16T17:01:08.271Z,95597.19
2022-08-16T17:03:35.648Z,95595.81
2022-08-16T17:06:09.189Z,95606.94
2022-08-16T17:08:41.373Z,95604.97
2022-08-16T17:11:10.064Z,95599.81
2022-08-16T17:13:38.568Z,95604.09
2022-08-16T17:16:06.284Z,95602.97
2022-08-16T17:19:14.903Z,95611.34
2022-08-16T17:21:23.642Z,95606.97
2022-08-16T17:23:58.607Z,95620.28
2022-08-16T17:26:30.199Z,95618.28
2022-08-16T17:29:02.121Z,95621.75
2022-08-16T17:31:47.144Z,95617.41
2022-08-16T17:34:30.259Z,95630.38
2022-08-16T17:37:00.583Z,95637.34
2022-08-16T17:39:33.636Z,95636.47
2022-08-16T17:42:08.219Z,95637.47
2022-08-16T17:44:35.090Z,95640.31
2022-08-16T17:47:01.817Z,95639.19
2022-08-16T17:49:28.513Z,95643.38
2022-08-16T17:51:55.315Z,95647.88
2022-08-16T17:54:30.424Z,95650.75
2022-08-16T17:57:01.413Z,95657.66
2022-08-16T17:59:29.659Z,95662.44
2022-08-16T18:01:57.744Z,95657.00
2022-08-16T18:04:49.120Z,95669.63
2022-08-16T18:07:12.289Z,95665.47
2022-08-16T18:09:41.947Z,95666.47
2022-08-16T18:12:45.326Z,95671.00
2022-08-16T18:15:09.593Z,95678.81
2022-08-16T18:17:36.318Z,95681.69
2022-08-16T18:20:28.549Z,95684.91
2022-08-16T18:23:01.700Z,95691.66
2022-08-16T18:25:28.660Z,95691.00
2022-08-16T18:27:55.418Z,95696.59
2022-08-16T18:30:22.088Z,95701.13
2022-08-16T18:32:50.288Z,95707.25
2022-08-16T18:35:18.272Z,95706.97
2022-08-16T18:37:45.109Z,95712.50
2022-08-16T18:40:13.075Z,95716.78
2022-08-16T18:42:39.916Z,95722.41
2022-08-16T18:45:07.581Z,95723.50
2022-08-16T18:47:34.338Z,95734.22
2022-08-16T18:50:01.026Z,95726.59
2022-08-16T18:52:27.784Z,95730.03
2022-08-16T18:55:01.818Z,95740.50
2022-08-16T18:57:30.063Z,95728.31
2022-08-16T18:59:56.771Z,95738.31
2022-08-16T19:02:56.115Z,95734.44
2022-08-16T19:05:25.417Z,95743.63
2022-08-16T19:07:52.380Z,95747.41
2022-08-16T19:10:19.402Z,95750.84
2022-08-16T19:12:46.128Z,95758.13
2022-08-16T19:15:20.381Z,95758.94
2022-08-16T19:17:47.432Z,95763.78
2022-08-16T19:20:17.006Z,95759.44
2022-08-16T19:25:46.409Z,95761.91
2022-08-16T19:28:44.242Z,95758.38
2022-08-16T19:31:06.428Z,95764.59
2022-08-16T19:33:33.158Z,95758.38
2022-08-16T19:36:00.353Z,95760.50
2022-08-16T19:38:27.229Z,95759.34
2022-08-16T19:40:54.046Z,95762.28
2022-08-16T19:43:22.109Z,95766.31
2022-08-16T19:45:49.575Z,95764.91
2022-08-16T19:48:16.342Z,95769.16
2022-08-16T19:50:43.147Z,95774.22
2022-08-16T19:53:18.566Z,95773.88
2022-08-16T19:55:47.421Z,95773.53
2022-08-16T19:58:18.534Z,95766.97
2022-08-16T20:00:45.723Z,95774.16
2022-08-16T20:03:20.205Z,95779.81
2022-08-16T20:05:48.533Z,95778.97
2022-08-16T20:08:16.693Z,95788.97
2022-08-16T20:10:47.763Z,95786.28
2022-08-16T20:13:20.745Z,95792.75
2022-08-16T20:15:49.310Z,95796.50
2022-08-16T20:18:24.371Z,95793.78
2022-08-16T20:20:52.762Z,95797.91
2022-08-16T20:23:24.596Z,95792.97
2022-08-16T20:25:55.962Z,95789.72
2022-08-16T20:28:45.061Z,95794.53
2022-08-16T20:31:11.585Z,95795.56
2022-08-16T20:33:38.370Z,95790.03
2022-08-16T20:36:05.187Z,95792.41
2022-08-16T20:38:31.911Z,95800.97
2022-08-16T20:40:58.626Z,95790.66
2022-08-16T20:43:25.358Z,95795.13
2022-08-16T20:45:52.346Z,95795.25
2022-08-16T20:48:19.020Z,95801.69
2022-08-16T20:50:45.826Z,95797.84
2022-08-16T20:53:12.489Z,95798.69
2022-08-16T20:55:40.460Z,95797.25
2022-08-16T20:58:07.619Z,95795.84
2022-08-16T21:00:34.417Z,95797.16
2022-08-16T21:03:06.688Z,95798.44
2022-08-16T21:05:34.285Z,95794.31
2022-08-16T21:08:01.164Z,95799.84
2022-08-16T21:10:28.163Z,95802.78
2022-08-16T21:12:57.939Z,95807.00
2022-08-16T21:15:26.521Z,95809.13
2022-08-16T21:17:53.877Z,95797.97
2022-08-16T21:20:22.862Z,95801.72
2022-08-16T21:23:02.048Z,95807.38
2022-08-16T21:25:29.900Z,95802.44
2022-08-16T21:28:36.882Z,95802.88
2022-08-16T21:30:44.780Z,95801.47
2022-08-16T21:33:16.094Z,95810.06
2022-08-16T21:35:45.369Z,95811.09
2022-08-16T21:38:28.742Z,95805.38
2022-08-16T21:40:58.406Z,95804.19
2022-08-16T21:43:25.583Z,95808.41
2022-08-16T21:45:54.164Z,95819.06
2022-08-16T21:48:33.590Z,95817.25
2022-08-16T21:51:11.616Z,95815.28
2022-08-16T21:53:38.840Z,95818.44
2022-08-16T21:56:06.357Z,95821.00
2022-08-16T21:58:33.394Z,95824.13
2022-08-16T22:01:01.099Z,95823.56
2022-08-16T22:03:28.011Z,95830.72
2022-08-16T22:06:12.326Z,95831.75
2022-08-16T22:08:49.588Z,95825.75
2022-08-16T22:11:22.580Z,95824.56
2022-08-16T22:13:57.341Z,95833.94
2022-08-16T22:16:31.591Z,95842.50
2022-08-16T22:18:58.995Z,95833.81
2022-08-16T22:21:26.316Z,95836.75
2022-08-16T22:23:57.776Z,95835.34
2022-08-16T22:26:31.705Z,95832.50
2022-08-16T22:29:01.119Z,95841.63
2022-08-16T22:31:28.560Z,95839.97
2022-08-16T22:33:56.788Z,95842.75
2022-08-16T22:36:27.898Z,95840.28
2022-08-16T22:39:00.126Z,95834.31
2022-08-16T22:41:28.441Z,95834.56
2022-08-16T22:43:56.359Z,95833.13
2022-08-16T22:46:23.610Z,95839.41
2022-08-16T22:48:50.988Z,95835.53
2022-08-16T22:51:23.543Z,95834.34
2022-08-16T22:53:50.894Z,95836.66
2022-08-16T22:56:17.961Z,95832.75
2022-08-16T22:58:46.391Z,95827.22
2022-08-16T23:01:14.613Z,95830.16
2022-08-16T23:03:42.729Z,95828.16
2022-08-16T23:06:10.637Z,95828.56
2022-08-16T23:08:40.862Z,95827.72
2022-08-16T23:11:10.771Z,95825.50
2022-08-16T23:13:38.354Z,95822.41
2022-08-16T23:16:23.240Z,95827.22
2022-08-16T23:18:53.475Z,95813.38
2022-08-16T23:21:21.024Z,95815.47
2022-08-16T23:23:49.116Z,95812.97
2022-08-16T23:26:44.500Z,95818.38
2022-08-16T23:29:04.790Z,95814.84
2022-08-16T23:31:32.699Z,95808.03
2022-08-16T23:34:00.376Z,95801.69
2022-08-16T23:36:27.089Z,95807.16
2022-08-16T23:38:54.055Z,95812.75
2022-08-16T23:41:20.762Z,95803.84
2022-08-16T23:43:47.507Z,95812.75
2022-08-16T23:46:18.294Z,95812.75
2022-08-16T23:50:01.897Z,95808.66
2022-08-16T23:51:32.662Z,95809.28
2022-08-16T23:54:00.118Z,95808.47
2022-08-16T23:56:26.815Z,95798.75
2022-08-16T23:59:02.657Z,95803.16
